Orovada, Nevada
Current Conditions -  °F | °C
As of 4:56 AM on Friday 24 Oct 2014 (Local Time) from KWMC Reporting Station
Clear Clear  
Wind Chill: 40°   Ceiling: Unl
Heat Index: 40°   Visibility: 10mi
Dew Point: 32°   Wind: 0mph
Humidity: 73%   Direction: NA
Pressure: 30.07"   Gusts: NA
Location:  41.57°N, 117.79°W
Report Text: KWMC 241156Z AUTO 00000KT 10SM CLR 04/00 A3007 RMK AO2 SLP166 T00440000 10067 20028 56008
Loading
Personal Weather Stations






























Interactive Weather Map
Tropical Storm Tracking
New forecast layout! Learn more

10-Day Weather Forecast

Advertisements
Track Severe Weather on mobile